sensor_id;sensor_type;location;lat;lon;timestamp;temperature;humidity
44731;DHT22;30458;47.448;19.032;2022-09-17T00:01:56;16.00;99.90
44731;DHT22;30458;47.448;19.032;2022-09-17T00:11:57;16.10;99.90
44731;DHT22;30458;47.448;19.032;2022-09-17T00:21:58;16.30;99.90
44731;DHT22;30458;47.448;19.032;2022-09-17T00:32:01;16.50;99.90
44731;DHT22;30458;47.448;19.032;2022-09-17T00:42:02;16.60;99.90
44731;DHT22;30458;47.448;19.032;2022-09-17T00:52:07;16.60;99.90
44731;DHT22;30458;47.448;19.032;2022-09-17T01:02:09;16.70;99.90
44731;DHT22;30458;47.448;19.032;2022-09-17T01:53:06;16.10;99.90
44731;DHT22;30458;47.448;19.032;2022-09-17T02:03:36;16.30;99.90
44731;DHT22;30458;47.448;19.032;2022-09-17T02:34:09;15.70;99.90
44731;DHT22;30458;47.448;19.032;2022-09-17T02:44:31;15.70;99.90
44731;DHT22;30458;47.448;19.032;2022-09-17T03:04:48;15.50;99.90
44731;DHT22;30458;47.448;19.032;2022-09-17T03:14:49;15.50;99.90
44731;DHT22;30458;47.448;19.032;2022-09-17T03:24:52;15.30;99.90
44731;DHT22;30458;47.448;19.032;2022-09-17T03:34:53;15.20;99.90
44731;DHT22;30458;47.448;19.032;2022-09-17T03:44:54;15.30;99.90
44731;DHT22;30458;47.448;19.032;2022-09-17T03:54:57;15.50;99.90
44731;DHT22;30458;47.448;19.032;2022-09-17T04:04:58;15.50;99.90
44731;DHT22;30458;47.448;19.032;2022-09-17T04:14:58;15.70;99.90
44731;DHT22;30458;47.448;19.032;2022-09-17T04:24:59;15.60;99.90
44731;DHT22;30458;47.448;19.032;2022-09-17T04:35:00;15.70;99.90
44731;DHT22;30458;47.448;19.032;2022-09-17T04:45:01;15.80;99.90
44731;DHT22;30458;47.448;19.032;2022-09-17T04:55:06;15.70;99.90
44731;DHT22;30458;47.448;19.032;2022-09-17T05:05:07;15.70;99.90
44731;DHT22;30458;47.448;19.032;2022-09-17T05:15:10;15.50;99.90
44731;DHT22;30458;47.448;19.032;2022-09-17T05:25:15;15.60;99.90
44731;DHT22;30458;47.448;19.032;2022-09-17T05:35:18;15.60;99.90
44731;DHT22;30458;47.448;19.032;2022-09-17T05:45:19;15.70;99.90
44731;DHT22;30458;47.448;19.032;2022-09-17T05:55:25;15.70;99.60
44731;DHT22;30458;47.448;19.032;2022-09-17T06:05:27;15.80;99.80
44731;DHT22;30458;47.448;19.032;2022-09-17T06:15:30;16.00;99.90
44731;DHT22;30458;47.448;19.032;2022-09-17T06:25:33;15.90;99.90
44731;DHT22;30458;47.448;19.032;2022-09-17T06:35:34;15.60;99.90
44731;DHT22;30458;47.448;19.032;2022-09-17T06:45:35;15.50;99.90
44731;DHT22;30458;47.448;19.032;2022-09-17T06:55:36;15.60;99.90
44731;DHT22;30458;47.448;19.032;2022-09-17T07:05:36;15.30;99.90
44731;DHT22;30458;47.448;19.032;2022-09-17T07:15:37;15.40;99.90
44731;DHT22;30458;47.448;19.032;2022-09-17T07:25:40;15.60;99.90
44731;DHT22;30458;47.448;19.032;2022-09-17T07:35:41;15.80;99.90
44731;DHT22;30458;47.448;19.032;2022-09-17T07:45:42;16.20;99.90
44731;DHT22;30458;47.448;19.032;2022-09-17T08:05:53;16.50;99.70
44731;DHT22;30458;47.448;19.032;2022-09-17T08:16:04;16.50;98.30
44731;DHT22;30458;47.448;19.032;2022-09-17T08:26:12;16.30;98.50
44731;DHT22;30458;47.448;19.032;2022-09-17T08:36:16;16.30;99.00
44731;DHT22;30458;47.448;19.032;2022-09-17T08:46:17;16.30;99.40
44731;DHT22;30458;47.448;19.032;2022-09-17T08:56:18;16.50;99.80
44731;DHT22;30458;47.448;19.032;2022-09-17T09:06:22;16.30;99.90
44731;DHT22;30458;47.448;19.032;2022-09-17T09:16:26;16.40;99.30
44731;DHT22;30458;47.448;19.032;2022-09-17T09:26:45;16.60;99.30
44731;DHT22;30458;47.448;19.032;2022-09-17T09:36:48;16.60;98.80
44731;DHT22;30458;47.448;19.032;2022-09-17T09:47:13;16.80;98.80
44731;DHT22;30458;47.448;19.032;2022-09-17T09:57:58;17.10;98.10
44731;DHT22;30458;47.448;19.032;2022-09-17T10:07:50;17.10;97.80
44731;DHT22;30458;47.448;19.032;2022-09-17T10:18:29;17.10;98.30
44731;DHT22;30458;47.448;19.032;2022-09-17T10:38:44;16.90;97.60
44731;DHT22;30458;47.448;19.032;2022-09-17T10:49:08;17.00;97.50
44731;DHT22;30458;47.448;19.032;2022-09-17T11:30:55;16.40;94.70
44731;DHT22;30458;47.448;19.032;2022-09-17T11:41:19;16.30;95.00
44731;DHT22;30458;47.448;19.032;2022-09-17T11:51:37;15.90;94.50
44731;DHT22;30458;47.448;19.032;2022-09-17T12:01:54;15.80;96.20
44731;DHT22;30458;47.448;19.032;2022-09-17T12:12:17;15.60;95.30
44731;DHT22;30458;47.448;19.032;2022-09-17T12:53:17;15.50;95.40
44731;DHT22;30458;47.448;19.032;2022-09-17T13:03:26;15.70;95.20
44731;DHT22;30458;47.448;19.032;2022-09-17T13:23:44;15.70;96.10
44731;DHT22;30458;47.448;19.032;2022-09-17T13:33:54;15.40;95.80
44731;DHT22;30458;47.448;19.032;2022-09-17T13:43:55;15.20;96.60
44731;DHT22;30458;47.448;19.032;2022-09-17T13:54:04;15.30;97.10
44731;DHT22;30458;47.448;19.032;2022-09-17T14:14:47;15.30;97.40
44731;DHT22;30458;47.448;19.032;2022-09-17T14:24:52;15.30;97.10
44731;DHT22;30458;47.448;19.032;2022-09-17T14:34:55;15.30;97.00
44731;DHT22;30458;47.448;19.032;2022-09-17T14:44:59;15.50;97.10
44731;DHT22;30458;47.448;19.032;2022-09-17T15:05:33;15.20;96.80
44731;DHT22;30458;47.448;19.032;2022-09-17T15:15:38;15.10;96.40
44731;DHT22;30458;47.448;19.032;2022-09-17T15:25:40;15.00;96.60
44731;DHT22;30458;47.448;19.032;2022-09-17T15:36:08;15.10;96.40
44731;DHT22;30458;47.448;19.032;2022-09-17T15:56:52;14.90;97.30
44731;DHT22;30458;47.448;19.032;2022-09-17T16:27:52;14.50;98.30
44731;DHT22;30458;47.448;19.032;2022-09-17T16:37:55;14.50;98.10
44731;DHT22;30458;47.448;19.032;2022-09-17T16:47:59;14.40;98.90
44731;DHT22;30458;47.448;19.032;2022-09-17T16:58:00;14.40;98.70
44731;DHT22;30458;47.448;19.032;2022-09-17T17:08:00;14.60;98.80
44731;DHT22;30458;47.448;19.032;2022-09-17T17:18:04;14.50;99.10
44731;DHT22;30458;47.448;19.032;2022-09-17T17:28:05;14.40;99.60
44731;DHT22;30458;47.448;19.032;2022-09-17T17:38:05;14.50;99.50
44731;DHT22;30458;47.448;19.032;2022-09-17T17:48:08;14.30;99.80
44731;DHT22;30458;47.448;19.032;2022-09-17T17:58:11;14.20;99.90
44731;DHT22;30458;47.448;19.032;2022-09-17T18:08:12;14.10;99.90
44731;DHT22;30458;47.448;19.032;2022-09-17T18:18:12;14.00;99.90
44731;DHT22;30458;47.448;19.032;2022-09-17T18:28:18;13.90;99.90
44731;DHT22;30458;47.448;19.032;2022-09-17T18:38:18;13.70;99.90
44731;DHT22;30458;47.448;19.032;2022-09-17T18:48:22;13.60;99.90
44731;DHT22;30458;47.448;19.032;2022-09-17T18:58:23;13.40;99.90
44731;DHT22;30458;47.448;19.032;2022-09-17T19:08:26;13.40;99.90
44731;DHT22;30458;47.448;19.032;2022-09-17T19:18:30;13.40;99.90
44731;DHT22;30458;47.448;19.032;2022-09-17T19:28:33;13.50;99.90
44731;DHT22;30458;47.448;19.032;2022-09-17T19:38:34;13.50;99.90
44731;DHT22;30458;47.448;19.032;2022-09-17T19:48:35;13.50;99.90
44731;DHT22;30458;47.448;19.032;2022-09-17T19:58:41;13.30;99.90
44731;DHT22;30458;47.448;19.032;2022-09-17T20:08:45;13.20;99.90
44731;DHT22;30458;47.448;19.032;2022-09-17T20:18:51;13.30;99.90
44731;DHT22;30458;47.448;19.032;2022-09-17T20:28:53;13.20;99.90
44731;DHT22;30458;47.448;19.032;2022-09-17T20:38:54;13.10;99.90
44731;DHT22;30458;47.448;19.032;2022-09-17T20:48:56;13.00;99.90
44731;DHT22;30458;47.448;19.032;2022-09-17T20:59:02;13.00;99.90
44731;DHT22;30458;47.448;19.032;2022-09-17T21:09:13;13.00;99.90
44731;DHT22;30458;47.448;19.032;2022-09-17T21:19:17;13.00;99.90
44731;DHT22;30458;47.448;19.032;2022-09-17T21:29:19;13.00;99.90
44731;DHT22;30458;47.448;19.032;2022-09-17T21:39:20;12.90;99.90
44731;DHT22;30458;47.448;19.032;2022-09-17T21:49:21;12.90;99.90
44731;DHT22;30458;47.448;19.032;2022-09-17T21:59:22;13.00;99.90
44731;DHT22;30458;47.448;19.032;2022-09-17T22:09:24;13.10;99.90
44731;DHT22;30458;47.448;19.032;2022-09-17T22:19:25;13.00;99.90
44731;DHT22;30458;47.448;19.032;2022-09-17T22:29:27;12.90;99.90
44731;DHT22;30458;47.448;19.032;2022-09-17T22:39:30;12.80;99.90
44731;DHT22;30458;47.448;19.032;2022-09-17T22:49:31;12.60;99.90
44731;DHT22;30458;47.448;19.032;2022-09-17T22:59:35;12.50;99.90
44731;DHT22;30458;47.448;19.032;2022-09-17T23:09:36;12.40;99.90
44731;DHT22;30458;47.448;19.032;2022-09-17T23:19:39;12.40;99.90
44731;DHT22;30458;47.448;19.032;2022-09-17T23:29:40;12.50;99.90
44731;DHT22;30458;47.448;19.032;2022-09-17T23:39:43;12.40;99.90
44731;DHT22;30458;47.448;19.032;2022-09-17T23:49:46;12.40;99.90
44731;DHT22;30458;47.448;19.032;2022-09-17T23:59:47;12.40;99.90
